sensor_id;sensor_type;location;lat;lon;timestamp;temperature;humidity
1504;DHT22;743;47.076;15.494;2023-02-12T00:01:07;4.20;1.00
1504;DHT22;743;47.076;15.494;2023-02-12T00:08:30;4.60;1.00
1504;DHT22;743;47.076;15.494;2023-02-12T00:13:25;4.60;1.00
1504;DHT22;743;47.076;15.494;2023-02-12T00:15:52;4.60;1.00
1504;DHT22;743;47.076;15.494;2023-02-12T00:18:21;4.60;1.00
1504;DHT22;743;47.076;15.494;2023-02-12T00:20:48;4.20;1.00
1504;DHT22;743;47.076;15.494;2023-02-12T00:28:13;4.70;1.00
1504;DHT22;743;47.076;15.494;2023-02-12T00:30:41;4.90;1.00
1504;DHT22;743;47.076;15.494;2023-02-12T00:33:08;4.60;1.00
1504;DHT22;743;47.076;15.494;2023-02-12T00:35:36;4.10;1.00
1504;DHT22;743;47.076;15.494;2023-02-12T00:40:31;4.50;1.00
1504;DHT22;743;47.076;15.494;2023-02-12T00:42:58;4.70;1.00
1504;DHT22;743;47.076;15.494;2023-02-12T00:45:25;5.00;1.00
1504;DHT22;743;47.076;15.494;2023-02-12T00:47:53;4.50;1.00
1504;DHT22;743;47.076;15.494;2023-02-12T00:50:23;4.70;1.00
1504;DHT22;743;47.076;15.494;2023-02-12T00:52:51;4.40;1.00
1504;DHT22;743;47.076;15.494;2023-02-12T00:55:18;4.80;1.00
1504;DHT22;743;47.076;15.494;2023-02-12T00:57:46;5.30;1.00
1504;DHT22;743;47.076;15.494;2023-02-12T01:00:14;4.90;1.00
1504;DHT22;743;47.076;15.494;2023-02-12T01:02:42;4.30;1.00
1504;DHT22;743;47.076;15.494;2023-02-12T01:05:09;4.30;1.00
1504;DHT22;743;47.076;15.494;2023-02-12T01:07:37;4.50;1.00
1504;DHT22;743;47.076;15.494;2023-02-12T01:10:08;4.20;1.00
1504;DHT22;743;47.076;15.494;2023-02-12T01:15:03;4.50;1.00
1504;DHT22;743;47.076;15.494;2023-02-12T01:17:30;4.10;1.00
1504;DHT22;743;47.076;15.494;2023-02-12T01:19:59;4.90;1.00
1504;DHT22;743;47.076;15.494;2023-02-12T01:22:26;4.10;1.00
1504;DHT22;743;47.076;15.494;2023-02-12T01:24:53;4.30;1.00
1504;DHT22;743;47.076;15.494;2023-02-12T01:27:22;4.50;1.00
1504;DHT22;743;47.076;15.494;2023-02-12T01:29:51;4.50;1.00
1504;DHT22;743;47.076;15.494;2023-02-12T01:32:18;4.80;1.00
1504;DHT22;743;47.076;15.494;2023-02-12T01:34:45;4.30;1.00
1504;DHT22;743;47.076;15.494;2023-02-12T01:37:13;4.50;1.00
1504;DHT22;743;47.076;15.494;2023-02-12T01:39:40;4.40;1.00
1504;DHT22;743;47.076;15.494;2023-02-12T01:42:11;4.30;1.00
1504;DHT22;743;47.076;15.494;2023-02-12T01:44:44;4.30;1.00
1504;DHT22;743;47.076;15.494;2023-02-12T01:47:17;4.60;1.00
1504;DHT22;743;47.076;15.494;2023-02-12T01:49:46;4.70;1.00
1504;DHT22;743;47.076;15.494;2023-02-12T01:52:17;4.30;1.00
1504;DHT22;743;47.076;15.494;2023-02-12T01:54:46;4.30;1.00
1504;DHT22;743;47.076;15.494;2023-02-12T01:57:16;4.10;1.00
1504;DHT22;743;47.076;15.494;2023-02-12T01:59:45;4.20;1.00
1504;DHT22;743;47.076;15.494;2023-02-12T02:02:15;3.60;1.00
1504;DHT22;743;47.076;15.494;2023-02-12T02:04:45;4.00;1.00
1504;DHT22;743;47.076;15.494;2023-02-12T02:07:13;3.70;1.00
1504;DHT22;743;47.076;15.494;2023-02-12T02:09:41;3.90;1.00
1504;DHT22;743;47.076;15.494;2023-02-12T02:12:09;3.20;1.00
1504;DHT22;743;47.076;15.494;2023-02-12T02:14:57;3.10;1.00
1504;DHT22;743;47.076;15.494;2023-02-12T02:17:34;2.80;1.00
1504;DHT22;743;47.076;15.494;2023-02-12T02:20:29;3.30;1.00
1504;DHT22;743;47.076;15.494;2023-02-12T02:23:24;3.90;1.00
1504;DHT22;743;47.076;15.494;2023-02-12T02:26:15;3.70;1.00
1504;DHT22;743;47.076;15.494;2023-02-12T02:28:59;3.70;1.00
1504;DHT22;743;47.076;15.494;2023-02-12T02:31:34;3.70;1.00
1504;DHT22;743;47.076;15.494;2023-02-12T02:34:09;3.80;1.00
1504;DHT22;743;47.076;15.494;2023-02-12T02:36:43;4.00;1.00
1504;DHT22;743;47.076;15.494;2023-02-12T02:39:17;3.90;1.00
1504;DHT22;743;47.076;15.494;2023-02-12T02:41:49;3.90;1.00
1504;DHT22;743;47.076;15.494;2023-02-12T02:44:22;3.90;1.00
1504;DHT22;743;47.076;15.494;2023-02-12T02:46:53;3.80;1.00
1504;DHT22;743;47.076;15.494;2023-02-12T02:49:26;4.00;1.00
1504;DHT22;743;47.076;15.494;2023-02-12T02:51:56;4.30;1.00
1504;DHT22;743;47.076;15.494;2023-02-12T02:54:29;4.00;1.00
1504;DHT22;743;47.076;15.494;2023-02-12T02:57:02;3.30;1.00
1504;DHT22;743;47.076;15.494;2023-02-12T03:02:06;3.80;1.00
1504;DHT22;743;47.076;15.494;2023-02-12T03:04:39;4.00;1.00
1504;DHT22;743;47.076;15.494;2023-02-12T03:07:10;3.80;1.00
1504;DHT22;743;47.076;15.494;2023-02-12T03:09:42;3.90;1.00
1504;DHT22;743;47.076;15.494;2023-02-12T03:12:14;3.80;1.00
1504;DHT22;743;47.076;15.494;2023-02-12T03:14:45;4.00;1.00
1504;DHT22;743;47.076;15.494;2023-02-12T03:17:22;3.40;1.00
1504;DHT22;743;47.076;15.494;2023-02-12T03:19:55;3.80;1.00
1504;DHT22;743;47.076;15.494;2023-02-12T03:22:29;3.90;1.00
1504;DHT22;743;47.076;15.494;2023-02-12T03:25:02;4.00;1.00
1504;DHT22;743;47.076;15.494;2023-02-12T03:27:37;3.60;1.00
1504;DHT22;743;47.076;15.494;2023-02-12T03:30:12;4.00;1.00
1504;DHT22;743;47.076;15.494;2023-02-12T03:32:47;3.90;1.00
1504;DHT22;743;47.076;15.494;2023-02-12T03:35:26;3.80;1.00
1504;DHT22;743;47.076;15.494;2023-02-12T03:38:04;3.80;1.00
1504;DHT22;743;47.076;15.494;2023-02-12T03:40:42;4.10;1.00
1504;DHT22;743;47.076;15.494;2023-02-12T03:43:21;4.20;1.00
1504;DHT22;743;47.076;15.494;2023-02-12T03:45:54;4.20;1.00
1504;DHT22;743;47.076;15.494;2023-02-12T03:48:40;4.40;1.00
1504;DHT22;743;47.076;15.494;2023-02-12T03:51:20;4.30;1.00
1504;DHT22;743;47.076;15.494;2023-02-12T03:53:51;4.00;1.00
1504;DHT22;743;47.076;15.494;2023-02-12T03:56:24;4.10;1.00
1504;DHT22;743;47.076;15.494;2023-02-12T03:58:53;3.90;1.00
1504;DHT22;743;47.076;15.494;2023-02-12T04:01:22;3.70;1.00
1504;DHT22;743;47.076;15.494;2023-02-12T04:03:53;3.80;1.00
1504;DHT22;743;47.076;15.494;2023-02-12T04:06:35;3.80;1.00
1504;DHT22;743;47.076;15.494;2023-02-12T04:09:04;3.80;1.00
1504;DHT22;743;47.076;15.494;2023-02-12T04:11:37;4.00;1.00
1504;DHT22;743;47.076;15.494;2023-02-12T04:14:23;3.50;1.00
1504;DHT22;743;47.076;15.494;2023-02-12T04:17:00;3.50;1.00
1504;DHT22;743;47.076;15.494;2023-02-12T04:19:35;3.80;1.00
1504;DHT22;743;47.076;15.494;2023-02-12T04:22:17;4.00;1.00
1504;DHT22;743;47.076;15.494;2023-02-12T04:24:58;3.80;1.00
1504;DHT22;743;47.076;15.494;2023-02-12T04:27:36;3.70;1.00
1504;DHT22;743;47.076;15.494;2023-02-12T04:30:11;3.80;1.00
1504;DHT22;743;47.076;15.494;2023-02-12T04:32:43;3.80;1.00
1504;DHT22;743;47.076;15.494;2023-02-12T04:35:20;3.60;1.00
1504;DHT22;743;47.076;15.494;2023-02-12T04:37:56;3.60;1.00
1504;DHT22;743;47.076;15.494;2023-02-12T04:40:26;3.50;1.00
1504;DHT22;743;47.076;15.494;2023-02-12T04:42:55;3.50;1.00
1504;DHT22;743;47.076;15.494;2023-02-12T04:45:28;3.00;1.00
1504;DHT22;743;47.076;15.494;2023-02-12T04:48:02;3.80;1.00
1504;DHT22;743;47.076;15.494;2023-02-12T04:50:38;3.70;1.00
1504;DHT22;743;47.076;15.494;2023-02-12T04:53:08;3.60;1.00
1504;DHT22;743;47.076;15.494;2023-02-12T04:55:36;3.80;1.00
1504;DHT22;743;47.076;15.494;2023-02-12T05:00:33;3.80;1.00
1504;DHT22;743;47.076;15.494;2023-02-12T05:05:32;4.00;1.00
1504;DHT22;743;47.076;15.494;2023-02-12T05:08:00;4.20;1.00
1504;DHT22;743;47.076;15.494;2023-02-12T05:13:00;3.50;1.00
1504;DHT22;743;47.076;15.494;2023-02-12T05:15:27;3.80;1.00
1504;DHT22;743;47.076;15.494;2023-02-12T05:17:56;3.80;1.00
1504;DHT22;743;47.076;15.494;2023-02-12T05:20:28;4.10;1.00
1504;DHT22;743;47.076;15.494;2023-02-12T05:23:05;3.90;1.00
1504;DHT22;743;47.076;15.494;2023-02-12T05:25:52;3.80;1.00
1504;DHT22;743;47.076;15.494;2023-02-12T05:28:20;3.80;1.00
1504;DHT22;743;47.076;15.494;2023-02-12T05:30:52;3.90;1.00
1504;DHT22;743;47.076;15.494;2023-02-12T05:33:41;4.10;1.00
1504;DHT22;743;47.076;15.494;2023-02-12T05:36:16;4.30;1.00
1504;DHT22;743;47.076;15.494;2023-02-12T05:38:47;4.20;1.00
1504;DHT22;743;47.076;15.494;2023-02-12T05:41:18;4.40;1.00
1504;DHT22;743;47.076;15.494;2023-02-12T05:43:49;4.00;1.00
1504;DHT22;743;47.076;15.494;2023-02-12T05:46:18;6.80;1.00
1504;DHT22;743;47.076;15.494;2023-02-12T05:48:46;8.60;1.00
1504;DHT22;743;47.076;15.494;2023-02-12T05:51:37;7.50;1.00
1504;DHT22;743;47.076;15.494;2023-02-12T05:54:11;6.60;1.00
1504;DHT22;743;47.076;15.494;2023-02-12T05:56:43;6.60;1.00
1504;DHT22;743;47.076;15.494;2023-02-12T05:59:14;5.60;1.00
1504;DHT22;743;47.076;15.494;2023-02-12T06:01:43;5.60;1.00
1504;DHT22;743;47.076;15.494;2023-02-12T06:04:30;5.30;1.00
1504;DHT22;743;47.076;15.494;2023-02-12T06:07:01;5.10;1.00
1504;DHT22;743;47.076;15.494;2023-02-12T06:09:31;4.80;1.00
1504;DHT22;743;47.076;15.494;2023-02-12T06:11:59;5.10;1.00
1504;DHT22;743;47.076;15.494;2023-02-12T06:14:28;4.70;1.00
1504;DHT22;743;47.076;15.494;2023-02-12T06:16:58;4.80;1.00
1504;DHT22;743;47.076;15.494;2023-02-12T06:19:47;4.60;1.00
1504;DHT22;743;47.076;15.494;2023-02-12T06:22:19;4.80;1.00
1504;DHT22;743;47.076;15.494;2023-02-12T06:25:11;4.60;1.00
1504;DHT22;743;47.076;15.494;2023-02-12T06:27:40;5.10;1.00
1504;DHT22;743;47.076;15.494;2023-02-12T06:30:09;5.00;1.00
1504;DHT22;743;47.076;15.494;2023-02-12T06:32:38;5.00;1.00
1504;DHT22;743;47.076;15.494;2023-02-12T06:35:06;5.20;1.00
1504;DHT22;743;47.076;15.494;2023-02-12T06:37:33;4.30;1.00
1504;DHT22;743;47.076;15.494;2023-02-12T06:40:10;5.20;1.00
1504;DHT22;743;47.076;15.494;2023-02-12T06:42:57;5.40;1.00
1504;DHT22;743;47.076;15.494;2023-02-12T06:45:25;5.40;1.00
1504;DHT22;743;47.076;15.494;2023-02-12T06:47:53;5.60;1.00
1504;DHT22;743;47.076;15.494;2023-02-12T06:50:24;4.80;1.00
1504;DHT22;743;47.076;15.494;2023-02-12T06:55:24;4.80;1.00
1504;DHT22;743;47.076;15.494;2023-02-12T06:57:55;5.40;1.00
1504;DHT22;743;47.076;15.494;2023-02-12T07:00:29;5.40;1.00
1504;DHT22;743;47.076;15.494;2023-02-12T07:02:59;5.70;1.00
1504;DHT22;743;47.076;15.494;2023-02-12T07:08:21;5.60;1.00
1504;DHT22;743;47.076;15.494;2023-02-12T07:10:50;5.80;1.00
1504;DHT22;743;47.076;15.494;2023-02-12T07:13:18;5.60;1.00
1504;DHT22;743;47.076;15.494;2023-02-12T07:15:47;5.50;1.00
1504;DHT22;743;47.076;15.494;2023-02-12T07:18:16;5.50;1.00
1504;DHT22;743;47.076;15.494;2023-02-12T07:20:47;5.10;1.00
1504;DHT22;743;47.076;15.494;2023-02-12T07:23:17;5.60;1.00
1504;DHT22;743;47.076;15.494;2023-02-12T07:25:55;5.30;1.00
1504;DHT22;743;47.076;15.494;2023-02-12T07:28:27;5.60;1.00
1504;DHT22;743;47.076;15.494;2023-02-12T07:30:58;5.80;1.00
1504;DHT22;743;47.076;15.494;2023-02-12T07:33:28;6.00;1.00
1504;DHT22;743;47.076;15.494;2023-02-12T07:35:59;5.90;1.00
1504;DHT22;743;47.076;15.494;2023-02-12T07:38:28;6.40;1.00
1504;DHT22;743;47.076;15.494;2023-02-12T07:41:11;6.60;1.00
1504;DHT22;743;47.076;15.494;2023-02-12T07:43:40;6.60;1.00
1504;DHT22;743;47.076;15.494;2023-02-12T07:46:15;6.40;1.00
1504;DHT22;743;47.076;15.494;2023-02-12T07:49:05;6.50;1.00
1504;DHT22;743;47.076;15.494;2023-02-12T07:51:36;7.10;1.00
1504;DHT22;743;47.076;15.494;2023-02-12T07:54:23;6.10;1.00
1504;DHT22;743;47.076;15.494;2023-02-12T07:56:54;6.60;1.00
1504;DHT22;743;47.076;15.494;2023-02-12T07:59:21;6.60;1.00
1504;DHT22;743;47.076;15.494;2023-02-12T08:01:51;6.70;1.00
1504;DHT22;743;47.076;15.494;2023-02-12T08:04:40;6.70;1.00
1504;DHT22;743;47.076;15.494;2023-02-12T08:07:11;7.00;1.00
1504;DHT22;743;47.076;15.494;2023-02-12T08:12:14;7.10;1.00
1504;DHT22;743;47.076;15.494;2023-02-12T08:14:42;7.50;1.00
1504;DHT22;743;47.076;15.494;2023-02-12T08:17:12;7.30;1.00
1504;DHT22;743;47.076;15.494;2023-02-12T08:19:39;7.40;1.00
1504;DHT22;743;47.076;15.494;2023-02-12T08:24:35;7.40;1.00
1504;DHT22;743;47.076;15.494;2023-02-12T08:27:04;7.40;1.00
1504;DHT22;743;47.076;15.494;2023-02-12T08:29:36;8.10;1.00
1504;DHT22;743;47.076;15.494;2023-02-12T08:32:06;8.40;1.00
1504;DHT22;743;47.076;15.494;2023-02-12T08:34:39;8.30;1.00
1504;DHT22;743;47.076;15.494;2023-02-12T08:37:08;8.50;1.00
1504;DHT22;743;47.076;15.494;2023-02-12T08:39:38;8.80;1.00
1504;DHT22;743;47.076;15.494;2023-02-12T08:42:06;11.40;1.00
1504;DHT22;743;47.076;15.494;2023-02-12T08:44:54;12.10;1.00
1504;DHT22;743;47.076;15.494;2023-02-12T08:47:23;11.90;1.00
1504;DHT22;743;47.076;15.494;2023-02-12T08:52:23;11.30;1.00
1504;DHT22;743;47.076;15.494;2023-02-12T08:54:55;11.20;1.00
1504;DHT22;743;47.076;15.494;2023-02-12T08:57:24;11.00;1.00
1504;DHT22;743;47.076;15.494;2023-02-12T09:00:05;10.40;1.00
1504;DHT22;743;47.076;15.494;2023-02-12T09:02:35;9.90;1.00
1504;DHT22;743;47.076;15.494;2023-02-12T09:05:06;9.80;1.00
1504;DHT22;743;47.076;15.494;2023-02-12T09:07:34;10.00;1.00
1504;DHT22;743;47.076;15.494;2023-02-12T09:10:03;10.10;1.00
1504;DHT22;743;47.076;15.494;2023-02-12T09:12:31;10.70;1.00
1504;DHT22;743;47.076;15.494;2023-02-12T09:15:00;10.10;1.00
1504;DHT22;743;47.076;15.494;2023-02-12T09:17:30;10.70;1.00
1504;DHT22;743;47.076;15.494;2023-02-12T09:20:18;10.50;1.00
1504;DHT22;743;47.076;15.494;2023-02-12T09:22:49;10.50;1.00
1504;DHT22;743;47.076;15.494;2023-02-12T09:25:22;10.30;1.00
1504;DHT22;743;47.076;15.494;2023-02-12T09:27:50;9.50;1.00
1504;DHT22;743;47.076;15.494;2023-02-12T09:30:21;10.30;1.00
1504;DHT22;743;47.076;15.494;2023-02-12T09:32:48;10.20;1.00
1504;DHT22;743;47.076;15.494;2023-02-12T09:35:36;10.30;1.00
1504;DHT22;743;47.076;15.494;2023-02-12T09:38:04;10.50;1.00
1504;DHT22;743;47.076;15.494;2023-02-12T09:40:43;10.30;1.00
1504;DHT22;743;47.076;15.494;2023-02-12T09:43:18;9.90;1.00
1504;DHT22;743;47.076;15.494;2023-02-12T09:45:53;9.90;1.00
1504;DHT22;743;47.076;15.494;2023-02-12T09:48:44;9.90;1.00
1504;DHT22;743;47.076;15.494;2023-02-12T09:51:15;9.90;1.00
1504;DHT22;743;47.076;15.494;2023-02-12T09:53:45;10.00;1.00
1504;DHT22;743;47.076;15.494;2023-02-12T09:56:26;10.10;1.00
1504;DHT22;743;47.076;15.494;2023-02-12T09:58:58;9.80;1.00
1504;DHT22;743;47.076;15.494;2023-02-12T10:01:48;10.00;1.00
1504;DHT22;743;47.076;15.494;2023-02-12T10:04:18;10.30;1.00
1504;DHT22;743;47.076;15.494;2023-02-12T10:06:51;10.40;1.00
1504;DHT22;743;47.076;15.494;2023-02-12T10:09:58;10.50;1.00
1504;DHT22;743;47.076;15.494;2023-02-12T10:12:35;10.80;1.00
1504;DHT22;743;47.076;15.494;2023-02-12T10:15:26;11.10;1.00
1504;DHT22;743;47.076;15.494;2023-02-12T10:18:27;11.70;1.00
1504;DHT22;743;47.076;15.494;2023-02-12T10:21:22;11.70;1.00
1504;DHT22;743;47.076;15.494;2023-02-12T10:24:27;11.60;1.00
1504;DHT22;743;47.076;15.494;2023-02-12T10:27:19;11.40;1.00
1504;DHT22;743;47.076;15.494;2023-02-12T10:29:57;11.90;1.00
1504;DHT22;743;47.076;15.494;2023-02-12T10:32:30;11.70;1.00
1504;DHT22;743;47.076;15.494;2023-02-12T10:35:13;11.90;1.00
1504;DHT22;743;47.076;15.494;2023-02-12T10:37:51;12.40;1.00
1504;DHT22;743;47.076;15.494;2023-02-12T10:40:24;12.10;1.00
1504;DHT22;743;47.076;15.494;2023-02-12T10:42:56;11.80;1.00
1504;DHT22;743;47.076;15.494;2023-02-12T10:45:30;12.20;1.00
1504;DHT22;743;47.076;15.494;2023-02-12T10:48:07;12.30;1.00
1504;DHT22;743;47.076;15.494;2023-02-12T10:51:02;11.80;1.00
1504;DHT22;743;47.076;15.494;2023-02-12T10:53:38;11.60;1.00
1504;DHT22;743;47.076;15.494;2023-02-12T10:56:15;12.00;1.00
1504;DHT22;743;47.076;15.494;2023-02-12T10:58:54;12.90;1.00
1504;DHT22;743;47.076;15.494;2023-02-12T11:01:25;12.50;1.00
1504;DHT22;743;47.076;15.494;2023-02-12T11:03:55;12.60;1.00
1504;DHT22;743;47.076;15.494;2023-02-12T11:06:28;12.70;1.00
1504;DHT22;743;47.076;15.494;2023-02-12T11:08:57;12.20;1.00
1504;DHT22;743;47.076;15.494;2023-02-12T11:11:37;12.40;1.00
1504;DHT22;743;47.076;15.494;2023-02-12T11:14:15;12.50;1.00
1504;DHT22;743;47.076;15.494;2023-02-12T11:16:52;12.70;1.00
1504;DHT22;743;47.076;15.494;2023-02-12T11:19:24;12.80;1.00
1504;DHT22;743;47.076;15.494;2023-02-12T11:22:05;13.10;1.00
1504;DHT22;743;47.076;15.494;2023-02-12T11:24:37;12.60;1.00
1504;DHT22;743;47.076;15.494;2023-02-12T11:27:21;12.70;1.00
1504;DHT22;743;47.076;15.494;2023-02-12T11:30:11;12.30;1.00
1504;DHT22;743;47.076;15.494;2023-02-12T11:32:40;12.50;1.00
1504;DHT22;743;47.076;15.494;2023-02-12T11:35:13;12.40;1.00
1504;DHT22;743;47.076;15.494;2023-02-12T11:37:53;12.50;1.00
1504;DHT22;743;47.076;15.494;2023-02-12T11:40:28;12.30;1.00
1504;DHT22;743;47.076;15.494;2023-02-12T11:43:01;12.50;1.00
1504;DHT22;743;47.076;15.494;2023-02-12T11:45:35;12.10;1.00
1504;DHT22;743;47.076;15.494;2023-02-12T11:48:15;12.60;1.00
1504;DHT22;743;47.076;15.494;2023-02-12T11:50:48;12.80;1.00
1504;DHT22;743;47.076;15.494;2023-02-12T11:53:24;12.60;1.00
1504;DHT22;743;47.076;15.494;2023-02-12T11:55:57;12.90;1.00
1504;DHT22;743;47.076;15.494;2023-02-12T11:58:28;13.00;1.00
1504;DHT22;743;47.076;15.494;2023-02-12T12:01:02;12.80;1.00
1504;DHT22;743;47.076;15.494;2023-02-12T12:03:38;12.60;1.00
1504;DHT22;743;47.076;15.494;2023-02-12T12:06:20;12.80;1.00
1504;DHT22;743;47.076;15.494;2023-02-12T12:09:19;12.70;1.00
1504;DHT22;743;47.076;15.494;2023-02-12T12:15:38;12.90;1.00
1504;DHT22;743;47.076;15.494;2023-02-12T12:18:31;13.00;1.00
1504;DHT22;743;47.076;15.494;2023-02-12T12:21:25;13.10;1.00
1504;DHT22;743;47.076;15.494;2023-02-12T12:23:58;13.30;1.00
1504;DHT22;743;47.076;15.494;2023-02-12T12:26:31;13.50;1.00
1504;DHT22;743;47.076;15.494;2023-02-12T12:29:05;13.50;1.00
1504;DHT22;743;47.076;15.494;2023-02-12T12:31:43;13.30;1.00
1504;DHT22;743;47.076;15.494;2023-02-12T12:34:17;13.00;1.00
1504;DHT22;743;47.076;15.494;2023-02-12T12:37:22;13.20;1.00
1504;DHT22;743;47.076;15.494;2023-02-12T12:40:09;13.80;1.00
1504;DHT22;743;47.076;15.494;2023-02-12T12:43:02;13.30;1.00
1504;DHT22;743;47.076;15.494;2023-02-12T12:46:10;12.80;1.00
1504;DHT22;743;47.076;15.494;2023-02-12T12:48:57;12.80;1.00
1504;DHT22;743;47.076;15.494;2023-02-12T12:51:44;12.80;1.00
1504;DHT22;743;47.076;15.494;2023-02-12T12:54:30;12.90;1.00
1504;DHT22;743;47.076;15.494;2023-02-12T12:57:08;12.90;1.00
1504;DHT22;743;47.076;15.494;2023-02-12T13:00:11;12.50;1.00
1504;DHT22;743;47.076;15.494;2023-02-12T13:03:16;12.60;1.00
1504;DHT22;743;47.076;15.494;2023-02-12T13:05:57;11.70;1.00
1504;DHT22;743;47.076;15.494;2023-02-12T13:08:42;12.50;1.00
1504;DHT22;743;47.076;15.494;2023-02-12T13:11:25;12.10;1.00
1504;DHT22;743;47.076;15.494;2023-02-12T13:14:10;12.90;1.00
1504;DHT22;743;47.076;15.494;2023-02-12T13:16:48;13.50;1.00
1504;DHT22;743;47.076;15.494;2023-02-12T13:19:31;13.40;1.00
1504;DHT22;743;47.076;15.494;2023-02-12T13:22:11;14.10;1.00
1504;DHT22;743;47.076;15.494;2023-02-12T13:24:46;14.20;1.00
1504;DHT22;743;47.076;15.494;2023-02-12T13:27:19;15.20;1.00
1504;DHT22;743;47.076;15.494;2023-02-12T13:30:04;15.20;1.00
1504;DHT22;743;47.076;15.494;2023-02-12T13:32:39;15.50;1.00
1504;DHT22;743;47.076;15.494;2023-02-12T13:35:18;15.40;1.00
1504;DHT22;743;47.076;15.494;2023-02-12T13:37:49;15.00;1.00
1504;DHT22;743;47.076;15.494;2023-02-12T13:40:21;14.90;1.00
1504;DHT22;743;47.076;15.494;2023-02-12T13:42:57;15.00;1.00
1504;DHT22;743;47.076;15.494;2023-02-12T13:45:49;16.00;1.00
1504;DHT22;743;47.076;15.494;2023-02-12T13:48:38;15.40;1.00
1504;DHT22;743;47.076;15.494;2023-02-12T13:51:19;15.00;1.00
1504;DHT22;743;47.076;15.494;2023-02-12T13:54:09;15.40;1.00
1504;DHT22;743;47.076;15.494;2023-02-12T13:56:43;14.90;1.00
1504;DHT22;743;47.076;15.494;2023-02-12T13:59:41;15.30;1.00
1504;DHT22;743;47.076;15.494;2023-02-12T14:02:52;15.00;1.00
1504;DHT22;743;47.076;15.494;2023-02-12T14:05:29;15.40;1.00
1504;DHT22;743;47.076;15.494;2023-02-12T14:08:03;15.70;1.00
1504;DHT22;743;47.076;15.494;2023-02-12T14:10:36;16.30;1.00
1504;DHT22;743;47.076;15.494;2023-02-12T14:13:16;16.00;1.00
1504;DHT22;743;47.076;15.494;2023-02-12T14:15:50;16.20;1.00
1504;DHT22;743;47.076;15.494;2023-02-12T14:18:31;16.00;1.00
1504;DHT22;743;47.076;15.494;2023-02-12T14:21:40;16.80;1.00
1504;DHT22;743;47.076;15.494;2023-02-12T14:24:47;16.40;1.00
1504;DHT22;743;47.076;15.494;2023-02-12T14:27:34;16.50;1.00
1504;DHT22;743;47.076;15.494;2023-02-12T14:30:33;16.60;1.00
1504;DHT22;743;47.076;15.494;2023-02-12T14:33:24;16.70;1.00
1504;DHT22;743;47.076;15.494;2023-02-12T14:36:16;16.80;1.00
1504;DHT22;743;47.076;15.494;2023-02-12T14:39:01;16.80;1.00
1504;DHT22;743;47.076;15.494;2023-02-12T14:41:34;16.50;1.00
1504;DHT22;743;47.076;15.494;2023-02-12T14:47:48;16.20;1.00
1504;DHT22;743;47.076;15.494;2023-02-12T14:50:38;15.80;1.00
1504;DHT22;743;47.076;15.494;2023-02-12T14:53:47;15.00;1.00
1504;DHT22;743;47.076;15.494;2023-02-12T14:56:23;14.60;1.00
1504;DHT22;743;47.076;15.494;2023-02-12T14:58:57;14.80;1.00
1504;DHT22;743;47.076;15.494;2023-02-12T15:01:29;14.40;1.00
1504;DHT22;743;47.076;15.494;2023-02-12T15:04:27;14.50;1.00
1504;DHT22;743;47.076;15.494;2023-02-12T15:07:05;14.50;1.00
1504;DHT22;743;47.076;15.494;2023-02-12T15:09:43;14.60;1.00
1504;DHT22;743;47.076;15.494;2023-02-12T15:12:19;14.80;1.00
1504;DHT22;743;47.076;15.494;2023-02-12T15:15:04;15.30;1.00
1504;DHT22;743;47.076;15.494;2023-02-12T15:17:38;14.70;1.00
1504;DHT22;743;47.076;15.494;2023-02-12T15:20:20;14.90;1.00
1504;DHT22;743;47.076;15.494;2023-02-12T15:22:56;15.10;1.00
1504;DHT22;743;47.076;15.494;2023-02-12T15:25:28;14.70;1.00
1504;DHT22;743;47.076;15.494;2023-02-12T15:27:59;14.50;1.00
1504;DHT22;743;47.076;15.494;2023-02-12T15:30:32;14.00;1.00
1504;DHT22;743;47.076;15.494;2023-02-12T15:33:05;13.90;1.00
1504;DHT22;743;47.076;15.494;2023-02-12T15:35:35;13.80;1.00
1504;DHT22;743;47.076;15.494;2023-02-12T15:38:19;13.70;1.00
1504;DHT22;743;47.076;15.494;2023-02-12T15:40:54;13.40;1.00
1504;DHT22;743;47.076;15.494;2023-02-12T15:43:29;13.50;1.00
1504;DHT22;743;47.076;15.494;2023-02-12T15:46:01;13.30;1.00
1504;DHT22;743;47.076;15.494;2023-02-12T15:48:35;12.80;1.00
1504;DHT22;743;47.076;15.494;2023-02-12T15:51:09;13.00;1.00
1504;DHT22;743;47.076;15.494;2023-02-12T15:53:51;12.90;1.00
1504;DHT22;743;47.076;15.494;2023-02-12T15:56:25;12.80;1.00
1504;DHT22;743;47.076;15.494;2023-02-12T15:58:58;12.80;1.00
1504;DHT22;743;47.076;15.494;2023-02-12T16:01:33;13.30;1.00
1504;DHT22;743;47.076;15.494;2023-02-12T16:04:03;12.70;1.00
1504;DHT22;743;47.076;15.494;2023-02-12T16:06:34;12.50;1.00
1504;DHT22;743;47.076;15.494;2023-02-12T16:09:14;12.40;1.00
1504;DHT22;743;47.076;15.494;2023-02-12T16:11:47;12.30;1.00
1504;DHT22;743;47.076;15.494;2023-02-12T16:14:21;12.30;1.00
1504;DHT22;743;47.076;15.494;2023-02-12T16:16:54;11.80;1.00
1504;DHT22;743;47.076;15.494;2023-02-12T16:19:27;11.90;1.00
1504;DHT22;743;47.076;15.494;2023-02-12T16:22:00;11.60;1.00
1504;DHT22;743;47.076;15.494;2023-02-12T16:24:38;11.40;1.00
1504;DHT22;743;47.076;15.494;2023-02-12T16:27:18;11.20;1.00
1504;DHT22;743;47.076;15.494;2023-02-12T16:29:52;10.90;1.00
1504;DHT22;743;47.076;15.494;2023-02-12T16:32:36;10.70;1.00
1504;DHT22;743;47.076;15.494;2023-02-12T16:35:34;10.30;1.00
1504;DHT22;743;47.076;15.494;2023-02-12T16:38:39;10.60;1.00
1504;DHT22;743;47.076;15.494;2023-02-12T16:41:26;10.50;1.00
1504;DHT22;743;47.076;15.494;2023-02-12T16:44:20;10.60;1.00
1504;DHT22;743;47.076;15.494;2023-02-12T16:46:56;10.20;1.00
1504;DHT22;743;47.076;15.494;2023-02-12T16:49:27;10.30;1.00
1504;DHT22;743;47.076;15.494;2023-02-12T16:52:19;10.30;1.00
1504;DHT22;743;47.076;15.494;2023-02-12T16:54:50;9.80;1.00
1504;DHT22;743;47.076;15.494;2023-02-12T16:57:25;8.90;1.00
1504;DHT22;743;47.076;15.494;2023-02-12T16:59:55;9.70;1.00
1504;DHT22;743;47.076;15.494;2023-02-12T17:02:37;9.50;1.00
1504;DHT22;743;47.076;15.494;2023-02-12T17:05:07;9.40;1.00
1504;DHT22;743;47.076;15.494;2023-02-12T17:07:49;9.40;1.00
1504;DHT22;743;47.076;15.494;2023-02-12T17:10:20;9.30;1.00
1504;DHT22;743;47.076;15.494;2023-02-12T17:12:51;8.90;1.00
1504;DHT22;743;47.076;15.494;2023-02-12T17:15:23;9.10;1.00
1504;DHT22;743;47.076;15.494;2023-02-12T17:17:54;9.10;1.00
1504;DHT22;743;47.076;15.494;2023-02-12T17:20:33;8.90;1.00
1504;DHT22;743;47.076;15.494;2023-02-12T17:23:19;8.80;1.00
1504;DHT22;743;47.076;15.494;2023-02-12T17:26:00;8.90;1.00
1504;DHT22;743;47.076;15.494;2023-02-12T17:28:38;9.40;1.00
1504;DHT22;743;47.076;15.494;2023-02-12T17:31:17;9.80;1.00
1504;DHT22;743;47.076;15.494;2023-02-12T17:33:49;9.30;1.00
1504;DHT22;743;47.076;15.494;2023-02-12T17:36:24;8.90;1.00
1504;DHT22;743;47.076;15.494;2023-02-12T17:38:54;8.90;1.00
1504;DHT22;743;47.076;15.494;2023-02-12T17:41:27;8.50;1.00
1504;DHT22;743;47.076;15.494;2023-02-12T17:44:10;9.30;1.00
1504;DHT22;743;47.076;15.494;2023-02-12T17:46:44;8.80;1.00
1504;DHT22;743;47.076;15.494;2023-02-12T17:49:13;8.50;1.00
1504;DHT22;743;47.076;15.494;2023-02-12T17:51:57;8.40;1.00
1504;DHT22;743;47.076;15.494;2023-02-12T17:54:27;8.40;1.00
1504;DHT22;743;47.076;15.494;2023-02-12T17:57:09;8.50;1.00
1504;DHT22;743;47.076;15.494;2023-02-12T17:59:57;8.30;1.00
1504;DHT22;743;47.076;15.494;2023-02-12T18:02:36;8.20;1.00
1504;DHT22;743;47.076;15.494;2023-02-12T18:05:07;8.00;1.00
1504;DHT22;743;47.076;15.494;2023-02-12T18:07:42;8.10;1.00
1504;DHT22;743;47.076;15.494;2023-02-12T18:10:18;8.70;1.00
1504;DHT22;743;47.076;15.494;2023-02-12T18:12:47;8.80;1.00